createdAt,value
2023-04-18T00:00:50.645Z,8.00
2023-04-18T00:03:38.979Z,8.00
2023-04-18T00:06:26.635Z,8.10
2023-04-18T00:09:14.049Z,8.00
2023-04-18T00:12:02.023Z,8.00
2023-04-18T00:14:50.407Z,8.00
2023-04-18T00:17:41.039Z,8.00
2023-04-18T00:20:28.518Z,8.00
2023-04-18T00:23:16.299Z,7.90
2023-04-18T00:26:03.716Z,7.80
2023-04-18T00:28:51.203Z,7.90
2023-04-18T00:31:38.664Z,7.80
2023-04-18T00:34:26.116Z,7.80
2023-04-18T00:37:13.547Z,7.80
2023-04-18T00:40:01.151Z,7.80
2023-04-18T00:42:48.636Z,7.80
2023-04-18T00:45:37.021Z,7.70
2023-04-18T00:48:24.655Z,7.60
2023-04-18T00:51:12.443Z,7.60
2023-04-18T00:54:00.138Z,7.60
2023-04-18T00:56:48.553Z,7.60
2023-04-18T00:59:36.082Z,7.70
2023-04-18T01:02:26.067Z,7.60
2023-04-18T01:05:13.846Z,7.70
2023-04-18T01:08:01.921Z,7.70
2023-04-18T01:10:49.994Z,7.50
2023-04-18T01:13:37.535Z,7.40
2023-04-18T01:16:25.139Z,7.40
2023-04-18T01:19:13.062Z,7.40
2023-04-18T01:22:00.544Z,7.40
2023-04-18T01:24:48.048Z,7.30
2023-04-18T01:27:35.582Z,7.40
2023-04-18T01:30:23.020Z,7.40
2023-04-18T01:33:10.734Z,7.40
2023-04-18T01:35:58.298Z,7.30
2023-04-18T01:38:45.673Z,7.30
2023-04-18T01:41:33.216Z,7.30
2023-04-18T01:44:20.697Z,7.20
2023-04-18T01:47:08.073Z,7.10
2023-04-18T01:49:55.918Z,7.10
2023-04-18T01:52:43.350Z,7.10
2023-04-18T01:55:30.764Z,7.00
2023-04-18T01:58:23.025Z,7.00
2023-04-18T02:01:10.662Z,7.10
2023-04-18T02:03:58.209Z,7.00
2023-04-18T02:06:45.790Z,6.90
2023-04-18T02:09:33.251Z,6.90
2023-04-18T02:12:20.988Z,6.90
2023-04-18T02:15:09.125Z,6.90
2023-04-18T02:17:56.607Z,6.90
2023-04-18T02:20:45.173Z,6.90
2023-04-18T02:23:33.013Z,6.80
2023-04-18T02:26:20.460Z,6.80
2023-04-18T02:29:07.953Z,6.70
2023-04-18T02:31:55.573Z,6.80
2023-04-18T02:34:43.110Z,6.70
2023-04-18T02:37:30.566Z,6.70
2023-04-18T02:40:18.723Z,6.70
2023-04-18T02:43:06.361Z,6.70
2023-04-18T02:45:53.827Z,6.70
2023-04-18T02:48:41.304Z,6.70
2023-04-18T02:51:28.920Z,6.60
2023-04-18T02:54:16.525Z,6.60
2023-04-18T02:57:04.257Z,6.70
2023-04-18T02:59:51.724Z,6.60
2023-04-18T03:02:39.323Z,6.50
2023-04-18T03:05:26.937Z,6.50
2023-04-18T03:08:14.577Z,6.40
2023-04-18T03:11:02.133Z,6.40
2023-04-18T03:13:49.609Z,6.50
2023-04-18T03:16:37.540Z,6.40
2023-04-18T03:19:25.016Z,6.30
2023-04-18T03:22:14.277Z,6.30
2023-04-18T03:25:01.905Z,6.30
2023-04-18T03:27:49.313Z,6.30
2023-04-18T03:30:36.701Z,6.40
2023-04-18T03:33:24.474Z,6.30
2023-04-18T03:36:15.568Z,6.30
2023-04-18T03:39:03.013Z,6.30
2023-04-18T03:41:52.123Z,6.20
2023-04-18T03:44:39.603Z,6.20
2023-04-18T03:47:27.005Z,6.20
2023-04-18T03:50:14.418Z,6.10
2023-04-18T03:53:02.262Z,6.10
2023-04-18T03:55:50.406Z,6.20
2023-04-18T03:58:37.821Z,6.20
2023-04-18T04:01:25.480Z,6.20
2023-04-18T04:04:15.301Z,6.20
2023-04-18T04:07:03.532Z,6.20
2023-04-18T04:09:50.947Z,6.20
2023-04-18T04:12:38.348Z,6.20
2023-04-18T04:15:25.908Z,6.20
2023-04-18T04:18:13.372Z,6.20
2023-04-18T04:21:01.939Z,6.20
2023-04-18T04:23:49.478Z,6.20
2023-04-18T04:26:36.994Z,6.20
2023-04-18T04:29:24.491Z,6.20
2023-04-18T04:32:12.961Z,6.20
2023-04-18T04:35:00.596Z,6.20
2023-04-18T04:37:48.589Z,6.20
2023-04-18T04:40:35.991Z,6.20
2023-04-18T04:43:23.661Z,6.30
2023-04-18T04:46:13.582Z,6.30
2023-04-18T04:49:01.269Z,6.30
2023-04-18T04:51:48.994Z,6.40
2023-04-18T04:54:36.529Z,6.60
2023-04-18T04:57:23.983Z,6.70
2023-04-18T05:00:13.668Z,6.70
2023-04-18T05:03:02.205Z,6.80
2023-04-18T05:05:49.800Z,6.80
2023-04-18T05:08:37.371Z,6.80
2023-04-18T05:11:25.067Z,6.90
2023-04-18T05:14:13.283Z,7.00
2023-04-18T05:17:01.027Z,7.10
2023-04-18T05:19:48.664Z,7.20
2023-04-18T05:22:36.125Z,7.30
2023-04-18T05:25:23.620Z,7.40
2023-04-18T05:28:11.123Z,7.40
2023-04-18T05:31:01.638Z,7.50
2023-04-18T05:33:49.148Z,7.60
2023-04-18T05:36:37.069Z,7.60
2023-04-18T05:39:24.553Z,7.70
2023-04-18T05:42:12.027Z,7.60
2023-04-18T05:44:59.475Z,7.70
2023-04-18T05:47:47.031Z,7.80
2023-04-18T05:50:34.541Z,7.70
2023-04-18T05:53:22.086Z,7.80
2023-04-18T05:56:09.581Z,7.70
2023-04-18T05:58:57.077Z,7.90
2023-04-18T06:01:44.956Z,8.00
2023-04-18T06:04:32.695Z,8.30
2023-04-18T06:07:21.332Z,8.50
2023-04-18T06:10:13.252Z,8.70
2023-04-18T06:13:00.857Z,8.80
2023-04-18T06:15:48.340Z,8.80
2023-04-18T06:18:36.012Z,8.70
2023-04-18T06:21:23.444Z,8.90
2023-04-18T06:24:11.101Z,9.00
2023-04-18T06:26:58.633Z,9.00
2023-04-18T06:29:46.088Z,9.00
2023-04-18T06:32:33.890Z,8.90
2023-04-18T06:35:21.387Z,8.80
2023-04-18T06:38:11.219Z,8.70
2023-04-18T06:40:58.610Z,8.80
2023-04-18T06:43:59.723Z,9.00
2023-04-18T06:46:50.042Z,9.00
2023-04-18T06:49:37.553Z,8.70
2023-04-18T06:52:24.987Z,8.80
2023-04-18T06:55:13.801Z,8.90
2023-04-18T06:58:01.380Z,8.80
2023-04-18T07:00:51.846Z,8.80
2023-04-18T07:03:39.722Z,8.80
2023-04-18T07:06:27.383Z,8.90
2023-04-18T07:09:14.947Z,9.00
2023-04-18T07:12:02.485Z,9.30
2023-04-18T07:14:51.800Z,9.20
2023-04-18T07:17:39.307Z,9.20
2023-04-18T07:20:26.714Z,9.30
2023-04-18T07:23:14.226Z,9.60
2023-04-18T07:26:02.813Z,9.80
2023-04-18T07:28:50.471Z,10.10
2023-04-18T07:31:37.983Z,10.50
2023-04-18T07:34:29.801Z,10.40
2023-04-18T07:37:18.935Z,10.50
2023-04-18T07:40:07.003Z,10.90
2023-04-18T07:42:54.540Z,10.90
2023-04-18T07:45:43.328Z,10.90
2023-04-18T07:48:31.176Z,10.80
2023-04-18T07:51:18.737Z,10.80
2023-04-18T07:54:06.236Z,10.80
2023-04-18T07:56:53.688Z,11.00
2023-04-18T07:59:41.106Z,11.30
2023-04-18T08:02:28.788Z,11.60
2023-04-18T08:05:16.683Z,12.10
2023-04-18T08:08:07.438Z,12.90
2023-04-18T08:10:55.002Z,13.30
2023-04-18T08:13:42.529Z,13.90
2023-04-18T08:16:30.047Z,14.10
2023-04-18T08:19:17.749Z,14.00
2023-04-18T08:22:11.800Z,14.20
2023-04-18T08:25:05.147Z,13.80
2023-04-18T08:27:53.193Z,14.00
2023-04-18T08:30:40.863Z,13.60
2023-04-18T08:33:28.831Z,13.50
2023-04-18T08:36:16.414Z,12.70
2023-04-18T08:39:04.373Z,12.80
2023-04-18T08:41:58.929Z,13.00
2023-04-18T08:44:47.296Z,12.90
2023-04-18T08:47:35.610Z,13.00
2023-04-18T08:50:23.204Z,13.00
2023-04-18T08:53:11.378Z,12.80
2023-04-18T08:56:00.275Z,13.00
2023-04-18T08:58:48.056Z,13.90
2023-04-18T09:01:58.705Z,13.70
2023-04-18T09:04:49.069Z,14.50
2023-04-18T09:07:36.626Z,15.20
2023-04-18T09:10:31.010Z,15.90
2023-04-18T09:13:38.746Z,17.20
2023-04-18T09:16:27.656Z,20.50
2023-04-18T09:19:19.095Z,21.90
2023-04-18T09:22:08.198Z,21.20
2023-04-18T09:24:57.429Z,19.00
2023-04-18T09:27:45.419Z,17.10
2023-04-18T09:30:39.438Z,16.50
2023-04-18T09:33:34.662Z,15.50
2023-04-18T09:36:27.623Z,14.80
2023-04-18T09:39:27.462Z,14.40
2023-04-18T09:42:16.936Z,14.90
2023-04-18T09:45:06.631Z,14.50
2023-04-18T09:47:57.244Z,14.60
2023-04-18T09:50:46.263Z,14.40
2023-04-18T09:53:39.660Z,14.20
2023-04-18T09:56:29.678Z,14.20
2023-04-18T09:59:41.003Z,14.00
2023-04-18T10:02:35.475Z,13.90
2023-04-18T10:05:26.794Z,14.60
2023-04-18T10:08:14.687Z,14.70
2023-04-18T10:11:02.216Z,15.00
2023-04-18T10:13:53.497Z,15.30
2023-04-18T10:16:43.170Z,14.90
2023-04-18T10:19:30.898Z,15.10
2023-04-18T10:22:29.225Z,15.30
2023-04-18T10:25:35.213Z,15.60
2023-04-18T10:28:24.442Z,16.90
2023-04-18T10:31:11.971Z,18.40
2023-04-18T10:37:04.878Z,19.20
2023-04-18T10:40:06.586Z,18.50
2023-04-18T10:42:53.998Z,16.90
2023-04-18T10:45:41.470Z,16.40
2023-04-18T10:48:32.799Z,16.60
2023-04-18T10:51:23.197Z,16.60
2023-04-18T10:54:13.552Z,17.00
2023-04-18T10:57:03.623Z,17.30
2023-04-18T10:59:52.502Z,17.50
2023-04-18T11:02:41.146Z,17.20
2023-04-18T11:05:29.410Z,16.80
2023-04-18T11:08:24.097Z,17.10
2023-04-18T11:11:12.937Z,19.30
2023-04-18T11:14:00.523Z,20.40
2023-04-18T11:16:48.037Z,20.40
2023-04-18T11:19:35.553Z,21.70
2023-04-18T11:22:23.064Z,22.80
2023-04-18T11:25:11.156Z,22.30
2023-04-18T11:28:00.242Z,23.30
2023-04-18T11:30:48.328Z,22.90
2023-04-18T11:33:36.135Z,21.40
2023-04-18T11:36:23.665Z,19.80
2023-04-18T11:39:11.200Z,19.00
2023-04-18T11:41:59.717Z,19.30
2023-04-18T11:44:49.372Z,18.20
2023-04-18T11:47:36.967Z,17.30
2023-04-18T11:50:25.382Z,17.20
2023-04-18T11:53:12.892Z,17.00
2023-04-18T11:56:01.052Z,17.10
2023-04-18T11:58:48.599Z,17.20
2023-04-18T12:01:36.164Z,17.30
2023-04-18T12:04:23.804Z,16.70
2023-04-18T12:07:11.401Z,16.20
2023-04-18T12:09:59.060Z,16.70
2023-04-18T12:12:54.087Z,17.10
2023-04-18T12:15:44.612Z,17.40
2023-04-18T12:18:32.680Z,17.20
2023-04-18T12:21:21.310Z,17.30
2023-04-18T12:24:18.596Z,17.40
2023-04-18T12:27:06.238Z,17.40
2023-04-18T12:29:53.700Z,17.20
2023-04-18T12:32:45.646Z,18.00
2023-04-18T12:35:33.268Z,19.80
2023-04-18T12:38:24.663Z,18.60
2023-04-18T12:41:12.637Z,17.80
2023-04-18T12:44:18.247Z,17.80
2023-04-18T12:47:08.044Z,17.90
2023-04-18T12:49:57.615Z,18.10
2023-04-18T12:52:46.217Z,17.70
2023-04-18T12:55:36.243Z,17.60
2023-04-18T12:58:23.747Z,17.60
2023-04-18T13:01:14.228Z,17.40
2023-04-18T13:04:12.008Z,17.20
2023-04-18T13:07:00.661Z,17.10
2023-04-18T13:09:48.802Z,16.80
2023-04-18T13:12:40.767Z,16.20
2023-04-18T13:18:31.731Z,16.40
2023-04-18T13:21:19.294Z,16.50
2023-04-18T13:24:07.106Z,16.30
2023-04-18T13:26:55.162Z,16.50
2023-04-18T13:29:46.265Z,16.70
2023-04-18T13:32:35.590Z,16.80
2023-04-18T13:35:23.078Z,16.70
2023-04-18T13:38:13.672Z,17.00
2023-04-18T13:41:11.424Z,16.80
2023-04-18T13:44:00.752Z,16.40
2023-04-18T13:46:48.286Z,16.60
2023-04-18T13:49:36.555Z,16.50
2023-04-18T13:52:24.181Z,16.20
2023-04-18T13:55:12.424Z,15.90
2023-04-18T13:58:00.025Z,16.00
2023-04-18T14:00:47.469Z,16.30
2023-04-18T14:03:37.894Z,16.40
2023-04-18T14:06:30.277Z,16.60
2023-04-18T14:09:18.130Z,17.30
2023-04-18T14:12:06.009Z,17.90
2023-04-18T14:14:53.494Z,19.20
2023-04-18T14:17:42.764Z,19.70
2023-04-18T14:20:34.571Z,19.20
2023-04-18T14:23:22.718Z,19.00
2023-04-18T14:26:10.300Z,18.10
2023-04-18T14:28:57.822Z,17.20
2023-04-18T14:31:46.073Z,17.50
2023-04-18T14:34:34.439Z,17.20
2023-04-18T14:37:25.162Z,16.90
2023-04-18T14:40:12.612Z,16.40
2023-04-18T14:43:00.303Z,17.20
2023-04-18T14:45:47.793Z,17.50
2023-04-18T14:48:35.353Z,18.50
2023-04-18T14:51:23.762Z,20.20
2023-04-18T14:54:11.551Z,18.60
2023-04-18T14:56:59.071Z,17.40
2023-04-18T14:59:46.510Z,16.80
2023-04-18T15:02:34.232Z,16.30
2023-04-18T15:05:23.722Z,15.90
2023-04-18T15:08:11.475Z,15.80
2023-04-18T15:10:58.965Z,16.00
2023-04-18T15:13:50.486Z,16.20
2023-04-18T15:16:40.680Z,15.90
2023-04-18T15:19:30.333Z,15.80
2023-04-18T15:22:17.691Z,16.00
2023-04-18T15:25:05.675Z,16.70
2023-04-18T15:27:53.189Z,16.60
2023-04-18T15:30:40.731Z,16.30
2023-04-18T15:33:28.482Z,16.50
2023-04-18T15:36:15.963Z,15.80
2023-04-18T15:39:05.646Z,16.90
2023-04-18T15:41:54.546Z,17.40
2023-04-18T15:44:42.120Z,17.90
2023-04-18T15:47:30.079Z,17.80
2023-04-18T15:50:17.931Z,17.80
2023-04-18T15:53:05.367Z,17.60
2023-04-18T15:55:53.813Z,18.30
2023-04-18T15:58:41.251Z,18.00
2023-04-18T16:01:29.649Z,17.50
2023-04-18T16:04:17.409Z,16.80
2023-04-18T16:07:05.088Z,16.30
2023-04-18T16:09:52.622Z,15.80
2023-04-18T16:12:40.756Z,15.60
2023-04-18T16:15:34.857Z,15.50
2023-04-18T16:18:22.440Z,15.20
2023-04-18T16:21:16.210Z,14.80
2023-04-18T16:24:03.852Z,14.70
2023-04-18T16:26:53.118Z,14.70
2023-04-18T16:29:41.206Z,14.60
2023-04-18T16:32:28.697Z,14.50
2023-04-18T16:35:16.154Z,14.30
2023-04-18T16:38:03.889Z,14.10
2023-04-18T16:40:51.449Z,14.00
2023-04-18T16:43:38.985Z,13.90
2023-04-18T16:46:26.735Z,13.90
2023-04-18T16:49:14.395Z,13.90
2023-04-18T16:52:02.105Z,13.80
2023-04-18T16:54:51.968Z,13.80
2023-04-18T16:57:40.081Z,13.80
2023-04-18T17:00:27.569Z,13.70
2023-04-18T17:03:15.519Z,13.60
2023-04-18T17:06:03.142Z,13.60
2023-04-18T17:08:50.911Z,13.50
2023-04-18T17:11:39.742Z,13.40
2023-04-18T17:14:27.328Z,13.40
2023-04-18T17:17:14.846Z,13.30
2023-04-18T17:20:02.471Z,13.10
2023-04-18T17:22:49.994Z,13.10
2023-04-18T17:25:37.421Z,13.20
2023-04-18T17:28:25.097Z,13.10
2023-04-18T17:31:15.671Z,13.00
2023-04-18T17:34:06.276Z,12.90
2023-04-18T17:36:53.805Z,12.80
2023-04-18T17:39:41.538Z,12.80
2023-04-18T17:42:28.933Z,12.70
2023-04-18T17:45:18.194Z,12.50
2023-04-18T17:48:06.231Z,12.40
2023-04-18T17:50:53.768Z,12.30
2023-04-18T17:53:41.624Z,12.30
2023-04-18T17:56:30.461Z,12.30
2023-04-18T17:59:17.944Z,12.20
2023-04-18T18:02:05.902Z,12.20
2023-04-18T18:04:53.490Z,12.10
2023-04-18T18:07:43.161Z,12.10
2023-04-18T18:10:32.366Z,12.10
2023-04-18T18:13:19.751Z,12.00
2023-04-18T18:16:08.754Z,12.00
2023-04-18T18:18:56.177Z,11.90
2023-04-18T18:21:43.679Z,12.00
2023-04-18T18:24:31.277Z,11.90
2023-04-18T18:27:20.356Z,11.90
2023-04-18T18:30:11.137Z,12.00
2023-04-18T18:33:03.437Z,12.00
2023-04-18T18:35:51.503Z,11.90
2023-04-18T18:38:40.647Z,12.00
2023-04-18T18:41:28.814Z,11.90
2023-04-18T18:44:16.408Z,11.90
2023-04-18T18:47:03.793Z,11.90
2023-04-18T18:49:51.322Z,11.80
2023-04-18T18:52:40.739Z,11.70
2023-04-18T18:55:30.640Z,11.80
2023-04-18T18:58:18.218Z,11.70
2023-04-18T19:01:06.642Z,11.70
2023-04-18T19:03:54.275Z,11.70
2023-04-18T19:06:41.945Z,11.70
2023-04-18T19:09:29.383Z,11.70
2023-04-18T19:12:16.782Z,11.70
2023-04-18T19:15:05.079Z,11.80
2023-04-18T19:17:53.060Z,11.70
2023-04-18T19:20:41.707Z,11.70
2023-04-18T19:23:30.876Z,11.70
2023-04-18T19:26:18.538Z,11.70
2023-04-18T19:29:10.645Z,11.70
2023-04-18T19:31:58.128Z,11.60
2023-04-18T19:34:45.576Z,11.50
2023-04-18T19:37:32.978Z,11.50
2023-04-18T19:40:20.494Z,11.50
2023-04-18T19:43:08.001Z,11.50
2023-04-18T19:45:55.705Z,11.50
2023-04-18T19:48:43.319Z,11.50
2023-04-18T19:51:31.327Z,11.50
2023-04-18T19:54:21.876Z,11.50
2023-04-18T19:57:09.774Z,11.40
2023-04-18T19:59:57.223Z,11.50
2023-04-18T20:02:44.821Z,11.50
2023-04-18T20:05:32.480Z,11.50
2023-04-18T20:08:20.333Z,11.40
2023-04-18T20:11:09.590Z,11.50
2023-04-18T20:13:57.012Z,11.50
2023-04-18T20:16:45.884Z,11.40
2023-04-18T20:19:33.363Z,11.50
2023-04-18T20:22:20.902Z,11.50
2023-04-18T20:25:08.897Z,11.40
2023-04-18T20:27:56.345Z,11.40
2023-04-18T20:30:44.807Z,11.60
2023-04-18T20:33:32.854Z,11.50
2023-04-18T20:36:20.630Z,11.50
2023-04-18T20:39:09.103Z,11.50
2023-04-18T20:41:57.729Z,11.50
2023-04-18T20:44:46.696Z,11.40
2023-04-18T20:47:34.660Z,11.40
2023-04-18T20:50:22.069Z,11.30
2023-04-18T20:53:09.589Z,11.30
2023-04-18T20:55:57.066Z,11.30
2023-04-18T20:58:44.617Z,11.30
2023-04-18T21:01:32.256Z,11.40
2023-04-18T21:04:20.779Z,11.20
2023-04-18T21:07:08.314Z,11.20
2023-04-18T21:09:55.999Z,11.10
2023-04-18T21:12:43.555Z,11.20
2023-04-18T21:15:31.084Z,11.20
2023-04-18T21:18:19.116Z,11.10
2023-04-18T21:21:07.888Z,11.10
2023-04-18T21:23:55.438Z,11.10
2023-04-18T21:26:42.923Z,11.00
2023-04-18T21:29:30.342Z,11.10
2023-04-18T21:32:17.977Z,11.10
2023-04-18T21:35:05.820Z,11.10
2023-04-18T21:37:53.263Z,11.10
2023-04-18T21:40:40.736Z,11.10
2023-04-18T21:43:28.261Z,11.10
2023-04-18T21:46:16.636Z,11.20
2023-04-18T21:49:04.131Z,11.20
2023-04-18T21:51:51.608Z,11.30
2023-04-18T21:54:40.061Z,11.30
2023-04-18T21:57:27.677Z,11.20
2023-04-18T22:00:16.742Z,11.10
2023-04-18T22:03:04.293Z,11.10
2023-04-18T22:05:56.465Z,11.10
2023-04-18T22:08:43.919Z,11.10
2023-04-18T22:11:32.136Z,10.90
2023-04-18T22:14:19.981Z,11.00
2023-04-18T22:17:09.111Z,11.00
2023-04-18T22:19:57.698Z,10.90
2023-04-18T22:22:45.322Z,10.80
2023-04-18T22:25:33.040Z,10.90
2023-04-18T22:28:22.058Z,10.90
2023-04-18T22:31:09.558Z,10.90
2023-04-18T22:33:57.060Z,10.80
2023-04-18T22:36:45.556Z,10.80
2023-04-18T22:39:33.541Z,10.80
2023-04-18T22:42:21.011Z,10.90
2023-04-18T22:45:08.986Z,10.90
2023-04-18T22:47:56.573Z,10.90
2023-04-18T22:50:44.348Z,10.90
2023-04-18T22:53:31.885Z,10.90
2023-04-18T22:59:09.268Z,10.90
2023-04-18T23:01:57.409Z,11.00
2023-04-18T23:04:45.844Z,11.00
2023-04-18T23:07:33.435Z,10.90
2023-04-18T23:10:20.980Z,11.00
2023-04-18T23:13:08.397Z,10.90
2023-04-18T23:15:56.019Z,10.90
2023-04-18T23:18:43.555Z,10.90
2023-04-18T23:21:32.662Z,11.00
2023-04-18T23:24:20.074Z,11.00
2023-04-18T23:27:07.525Z,10.90
2023-04-18T23:29:55.371Z,11.00
2023-04-18T23:32:42.929Z,11.10
2023-04-18T23:35:30.486Z,11.10
2023-04-18T23:38:17.982Z,11.10
2023-04-18T23:41:05.725Z,11.10
2023-04-18T23:43:53.492Z,11.00
2023-04-18T23:46:40.916Z,11.00
2023-04-18T23:49:28.412Z,11.00
2023-04-18T23:52:15.867Z,11.00
2023-04-18T23:55:03.614Z,11.00
2023-04-18T23:57:51.041Z,11.10
